sensor_id;sensor_type;location;lat;lon;timestamp;P1;durP1;ratioP1;P2;durP2;ratioP2
15067;SDS011;7633;60.024;18.770;2023-07-31T00:01:10;7.97;;;7.18;;
15067;SDS011;7633;60.024;18.770;2023-07-31T00:03:37;8.85;;;7.95;;
15067;SDS011;7633;60.024;18.770;2023-07-31T00:06:02;15.50;;;5.60;;
15067;SDS011;7633;60.024;18.770;2023-07-31T00:08:28;7.15;;;6.55;;
15067;SDS011;7633;60.024;18.770;2023-07-31T00:10:54;8.73;;;7.90;;
15067;SDS011;7633;60.024;18.770;2023-07-31T00:13:19;12.52;;;8.32;;
15067;SDS011;7633;60.024;18.770;2023-07-31T00:15:45;11.60;;;6.70;;
15067;SDS011;7633;60.024;18.770;2023-07-31T00:18:11;14.07;;;7.88;;
15067;SDS011;7633;60.024;18.770;2023-07-31T00:20:36;8.60;;;7.80;;
15067;SDS011;7633;60.024;18.770;2023-07-31T00:23:02;8.00;;;7.30;;
15067;SDS011;7633;60.024;18.770;2023-07-31T00:25:28;9.35;;;8.48;;
15067;SDS011;7633;60.024;18.770;2023-07-31T00:27:53;9.60;;;8.60;;
15067;SDS011;7633;60.024;18.770;2023-07-31T00:30:19;10.00;;;9.00;;
15067;SDS011;7633;60.024;18.770;2023-07-31T00:32:48;9.65;;;8.68;;
15067;SDS011;7633;60.024;18.770;2023-07-31T00:35:20;12.18;;;10.77;;
15067;SDS011;7633;60.024;18.770;2023-07-31T00:37:51;10.95;;;9.95;;
15067;SDS011;7633;60.024;18.770;2023-07-31T00:40:25;11.93;;;9.82;;
15067;SDS011;7633;60.024;18.770;2023-07-31T00:42:55;16.33;;;10.43;;
15067;SDS011;7633;60.024;18.770;2023-07-31T00:45:26;19.02;;;9.48;;
15067;SDS011;7633;60.024;18.770;2023-07-31T00:47:54;24.67;;;11.13;;
15067;SDS011;7633;60.024;18.770;2023-07-31T00:50:24;35.00;;;11.63;;
15067;SDS011;7633;60.024;18.770;2023-07-31T00:52:56;42.45;;;10.63;;
15067;SDS011;7633;60.024;18.770;2023-07-31T00:55:23;16.10;;;9.07;;
15067;SDS011;7633;60.024;18.770;2023-07-31T00:57:50;26.40;;;9.30;;
15067;SDS011;7633;60.024;18.770;2023-07-31T01:00:24;47.20;;;12.07;;
15067;SDS011;7633;60.024;18.770;2023-07-31T01:02:52;21.77;;;10.20;;
15067;SDS011;7633;60.024;18.770;2023-07-31T01:08:52;45.47;;;13.65;;
15067;SDS011;7633;60.024;18.770;2023-07-31T01:11:50;16.10;;;9.85;;
15067;SDS011;7633;60.024;18.770;2023-07-31T01:13:57;15.55;;;9.05;;
15067;SDS011;7633;60.024;18.770;2023-07-31T01:16:27;19.35;;;9.20;;
15067;SDS011;7633;60.024;18.770;2023-07-31T01:18:53;18.75;;;8.52;;
15067;SDS011;7633;60.024;18.770;2023-07-31T01:23:57;16.38;;;8.65;;
15067;SDS011;7633;60.024;18.770;2023-07-31T01:26:33;22.63;;;9.80;;
15067;SDS011;7633;60.024;18.770;2023-07-31T01:29:06;16.77;;;8.38;;
15067;SDS011;7633;60.024;18.770;2023-07-31T01:31:32;16.05;;;8.15;;
15067;SDS011;7633;60.024;18.770;2023-07-31T01:33:59;18.30;;;8.45;;
15067;SDS011;7633;60.024;18.770;2023-07-31T01:36:26;26.52;;;9.57;;
15067;SDS011;7633;60.024;18.770;2023-07-31T01:38:51;44.78;;;9.40;;
15067;SDS011;7633;60.024;18.770;2023-07-31T01:41:17;28.10;;;9.18;;
15067;SDS011;7633;60.024;18.770;2023-07-31T01:43:44;16.63;;;9.27;;
15067;SDS011;7633;60.024;18.770;2023-07-31T01:46:09;13.23;;;7.88;;
15067;SDS011;7633;60.024;18.770;2023-07-31T01:48:35;24.75;;;9.50;;
15067;SDS011;7633;60.024;18.770;2023-07-31T01:51:02;21.52;;;10.15;;
15067;SDS011;7633;60.024;18.770;2023-07-31T01:53:27;18.55;;;8.88;;
15067;SDS011;7633;60.024;18.770;2023-07-31T01:55:53;15.13;;;7.63;;
15067;SDS011;7633;60.024;18.770;2023-07-31T01:58:18;15.52;;;10.23;;
15067;SDS011;7633;60.024;18.770;2023-07-31T02:00:44;15.13;;;7.47;;
15067;SDS011;7633;60.024;18.770;2023-07-31T02:03:09;18.77;;;8.20;;
15067;SDS011;7633;60.024;18.770;2023-07-31T02:05:35;14.00;;;7.75;;
15067;SDS011;7633;60.024;18.770;2023-07-31T02:08:00;27.50;;;9.13;;
15067;SDS011;7633;60.024;18.770;2023-07-31T02:10:26;17.30;;;8.93;;
15067;SDS011;7633;60.024;18.770;2023-07-31T02:12:52;12.95;;;9.18;;
15067;SDS011;7633;60.024;18.770;2023-07-31T02:15:17;10.07;;;7.93;;
15067;SDS011;7633;60.024;18.770;2023-07-31T02:17:43;13.75;;;9.13;;
15067;SDS011;7633;60.024;18.770;2023-07-31T02:20:09;11.40;;;8.27;;
15067;SDS011;7633;60.024;18.770;2023-07-31T02:22:34;11.57;;;8.88;;
15067;SDS011;7633;60.024;18.770;2023-07-31T02:25:00;9.18;;;8.25;;
15067;SDS011;7633;60.024;18.770;2023-07-31T02:27:25;13.90;;;9.27;;
15067;SDS011;7633;60.024;18.770;2023-07-31T02:29:52;39.10;;;10.73;;
15067;SDS011;7633;60.024;18.770;2023-07-31T02:32:18;13.70;;;9.38;;
15067;SDS011;7633;60.024;18.770;2023-07-31T02:34:43;12.02;;;8.50;;
15067;SDS011;7633;60.024;18.770;2023-07-31T02:37:09;10.13;;;8.60;;
15067;SDS011;7633;60.024;18.770;2023-07-31T02:39:34;9.38;;;8.38;;
15067;SDS011;7633;60.024;18.770;2023-07-31T02:41:59;13.07;;;9.32;;
15067;SDS011;7633;60.024;18.770;2023-07-31T02:44:25;12.50;;;8.27;;
15067;SDS011;7633;60.024;18.770;2023-07-31T02:46:51;13.40;;;8.93;;
15067;SDS011;7633;60.024;18.770;2023-07-31T02:49:16;16.55;;;9.18;;
15067;SDS011;7633;60.024;18.770;2023-07-31T02:51:42;8.23;;;7.43;;
15067;SDS011;7633;60.024;18.770;2023-07-31T02:54:07;11.48;;;7.72;;
15067;SDS011;7633;60.024;18.770;2023-07-31T02:56:32;13.35;;;7.35;;
15067;SDS011;7633;60.024;18.770;2023-07-31T02:58:58;16.23;;;7.28;;
15067;SDS011;7633;60.024;18.770;2023-07-31T03:01:23;13.55;;;7.85;;
15067;SDS011;7633;60.024;18.770;2023-07-31T03:03:49;10.52;;;7.10;;
15067;SDS011;7633;60.024;18.770;2023-07-31T03:06:14;9.63;;;7.47;;
15067;SDS011;7633;60.024;18.770;2023-07-31T03:08:39;17.00;;;7.95;;
15067;SDS011;7633;60.024;18.770;2023-07-31T03:11:05;8.20;;;6.40;;
15067;SDS011;7633;60.024;18.770;2023-07-31T03:13:30;9.80;;;5.78;;
15067;SDS011;7633;60.024;18.770;2023-07-31T03:15:56;10.00;;;6.38;;
15067;SDS011;7633;60.024;18.770;2023-07-31T03:18:21;6.75;;;5.88;;
15067;SDS011;7633;60.024;18.770;2023-07-31T03:20:46;11.32;;;6.40;;
15067;SDS011;7633;60.024;18.770;2023-07-31T03:23:12;12.82;;;6.88;;
15067;SDS011;7633;60.024;18.770;2023-07-31T03:25:38;16.60;;;7.13;;
15067;SDS011;7633;60.024;18.770;2023-07-31T03:28:03;15.13;;;6.32;;
15067;SDS011;7633;60.024;18.770;2023-07-31T03:30:28;10.30;;;5.53;;
15067;SDS011;7633;60.024;18.770;2023-07-31T03:32:54;11.32;;;5.53;;
15067;SDS011;7633;60.024;18.770;2023-07-31T03:35:19;12.55;;;5.47;;
15067;SDS011;7633;60.024;18.770;2023-07-31T03:37:45;7.10;;;5.22;;
15067;SDS011;7633;60.024;18.770;2023-07-31T03:40:10;13.23;;;5.35;;
15067;SDS011;7633;60.024;18.770;2023-07-31T03:42:36;6.82;;;5.38;;
15067;SDS011;7633;60.024;18.770;2023-07-31T03:45:01;12.45;;;5.28;;
15067;SDS011;7633;60.024;18.770;2023-07-31T03:47:27;18.73;;;5.15;;
15067;SDS011;7633;60.024;18.770;2023-07-31T03:49:53;8.18;;;4.35;;
15067;SDS011;7633;60.024;18.770;2023-07-31T03:52:18;17.00;;;5.75;;
15067;SDS011;7633;60.024;18.770;2023-07-31T03:54:43;14.70;;;5.38;;
15067;SDS011;7633;60.024;18.770;2023-07-31T03:57:12;10.70;;;4.95;;
15067;SDS011;7633;60.024;18.770;2023-07-31T03:59:37;8.30;;;4.68;;
15067;SDS011;7633;60.024;18.770;2023-07-31T04:02:06;11.98;;;4.97;;
15067;SDS011;7633;60.024;18.770;2023-07-31T04:04:31;16.08;;;5.90;;
15067;SDS011;7633;60.024;18.770;2023-07-31T04:06:57;10.38;;;5.43;;
15067;SDS011;7633;60.024;18.770;2023-07-31T04:09:22;9.88;;;5.63;;
15067;SDS011;7633;60.024;18.770;2023-07-31T04:11:48;18.05;;;7.50;;
15067;SDS011;7633;60.024;18.770;2023-07-31T04:14:13;22.73;;;6.22;;
15067;SDS011;7633;60.024;18.770;2023-07-31T04:16:38;10.73;;;5.90;;
15067;SDS011;7633;60.024;18.770;2023-07-31T04:19:04;8.45;;;5.43;;
15067;SDS011;7633;60.024;18.770;2023-07-31T04:21:29;10.95;;;5.65;;
15067;SDS011;7633;60.024;18.770;2023-07-31T04:23:54;8.63;;;5.93;;
15067;SDS011;7633;60.024;18.770;2023-07-31T04:26:21;8.88;;;6.00;;
15067;SDS011;7633;60.024;18.770;2023-07-31T04:28:46;6.85;;;4.82;;
15067;SDS011;7633;60.024;18.770;2023-07-31T04:31:12;17.73;;;5.03;;
15067;SDS011;7633;60.024;18.770;2023-07-31T04:33:37;6.03;;;4.97;;
15067;SDS011;7633;60.024;18.770;2023-07-31T04:36:03;5.07;;;4.57;;
15067;SDS011;7633;60.024;18.770;2023-07-31T04:38:28;10.88;;;5.20;;
15067;SDS011;7633;60.024;18.770;2023-07-31T04:40:53;20.35;;;6.68;;
15067;SDS011;7633;60.024;18.770;2023-07-31T04:43:19;11.82;;;5.07;;
15067;SDS011;7633;60.024;18.770;2023-07-31T04:45:45;10.27;;;5.53;;
15067;SDS011;7633;60.024;18.770;2023-07-31T04:48:11;11.95;;;4.47;;
15067;SDS011;7633;60.024;18.770;2023-07-31T04:50:37;20.40;;;5.90;;
15067;SDS011;7633;60.024;18.770;2023-07-31T04:53:02;35.40;;;8.63;;
15067;SDS011;7633;60.024;18.770;2023-07-31T04:55:28;12.13;;;6.00;;
15067;SDS011;7633;60.024;18.770;2023-07-31T04:57:53;10.93;;;6.03;;
15067;SDS011;7633;60.024;18.770;2023-07-31T05:00:18;13.65;;;6.35;;
15067;SDS011;7633;60.024;18.770;2023-07-31T05:02:44;21.25;;;6.72;;
15067;SDS011;7633;60.024;18.770;2023-07-31T05:05:09;17.77;;;6.57;;
15067;SDS011;7633;60.024;18.770;2023-07-31T05:07:34;35.67;;;8.07;;
15067;SDS011;7633;60.024;18.770;2023-07-31T05:10:00;20.98;;;6.93;;
15067;SDS011;7633;60.024;18.770;2023-07-31T05:12:25;11.38;;;4.95;;
15067;SDS011;7633;60.024;18.770;2023-07-31T05:14:51;8.25;;;5.28;;
15067;SDS011;7633;60.024;18.770;2023-07-31T05:17:16;12.80;;;5.28;;
15067;SDS011;7633;60.024;18.770;2023-07-31T05:19:42;13.70;;;5.38;;
15067;SDS011;7633;60.024;18.770;2023-07-31T05:22:07;8.50;;;5.68;;
15067;SDS011;7633;60.024;18.770;2023-07-31T05:24:33;8.27;;;6.22;;
15067;SDS011;7633;60.024;18.770;2023-07-31T05:26:58;8.27;;;4.72;;
15067;SDS011;7633;60.024;18.770;2023-07-31T05:29:24;13.38;;;5.05;;
15067;SDS011;7633;60.024;18.770;2023-07-31T05:31:49;6.60;;;4.43;;
15067;SDS011;7633;60.024;18.770;2023-07-31T05:34:15;5.60;;;5.10;;
15067;SDS011;7633;60.024;18.770;2023-07-31T05:36:40;7.68;;;4.75;;
15067;SDS011;7633;60.024;18.770;2023-07-31T05:39:06;6.82;;;4.85;;
15067;SDS011;7633;60.024;18.770;2023-07-31T05:41:33;5.38;;;4.88;;
15067;SDS011;7633;60.024;18.770;2023-07-31T05:43:59;5.65;;;4.50;;
15067;SDS011;7633;60.024;18.770;2023-07-31T05:46:25;6.65;;;4.95;;
15067;SDS011;7633;60.024;18.770;2023-07-31T05:48:50;6.78;;;5.00;;
15067;SDS011;7633;60.024;18.770;2023-07-31T05:51:16;4.75;;;4.32;;
15067;SDS011;7633;60.024;18.770;2023-07-31T05:53:41;5.38;;;4.88;;
15067;SDS011;7633;60.024;18.770;2023-07-31T05:56:07;6.00;;;4.70;;
15067;SDS011;7633;60.024;18.770;2023-07-31T05:58:32;6.57;;;5.97;;
15067;SDS011;7633;60.024;18.770;2023-07-31T06:00:58;6.25;;;5.65;;
15067;SDS011;7633;60.024;18.770;2023-07-31T06:03:23;6.25;;;5.65;;
15067;SDS011;7633;60.024;18.770;2023-07-31T06:05:48;5.43;;;5.03;;
15067;SDS011;7633;60.024;18.770;2023-07-31T06:08:14;5.25;;;4.80;;
15067;SDS011;7633;60.024;18.770;2023-07-31T06:10:39;5.88;;;5.38;;
15067;SDS011;7633;60.024;18.770;2023-07-31T06:13:04;5.55;;;5.05;;
15067;SDS011;7633;60.024;18.770;2023-07-31T06:15:30;6.28;;;5.68;;
15067;SDS011;7633;60.024;18.770;2023-07-31T06:17:56;6.22;;;5.70;;
15067;SDS011;7633;60.024;18.770;2023-07-31T06:25:31;5.90;;;5.40;;
15067;SDS011;7633;60.024;18.770;2023-07-31T06:27:56;5.55;;;5.07;;
15067;SDS011;7633;60.024;18.770;2023-07-31T06:30:22;5.75;;;5.25;;
15067;SDS011;7633;60.024;18.770;2023-07-31T06:32:48;6.13;;;5.63;;
15067;SDS011;7633;60.024;18.770;2023-07-31T06:35:13;6.30;;;5.70;;
15067;SDS011;7633;60.024;18.770;2023-07-31T06:37:38;6.13;;;5.55;;
15067;SDS011;7633;60.024;18.770;2023-07-31T06:40:12;5.78;;;5.32;;
15067;SDS011;7633;60.024;18.770;2023-07-31T06:42:42;5.72;;;5.25;;
15067;SDS011;7633;60.024;18.770;2023-07-31T06:45:08;5.80;;;5.30;;
15067;SDS011;7633;60.024;18.770;2023-07-31T06:47:33;5.63;;;5.13;;
15067;SDS011;7633;60.024;18.770;2023-07-31T06:49:58;5.55;;;5.10;;
15067;SDS011;7633;60.024;18.770;2023-07-31T06:52:24;6.65;;;5.60;;
15067;SDS011;7633;60.024;18.770;2023-07-31T06:57:35;5.50;;;5.00;;
15067;SDS011;7633;60.024;18.770;2023-07-31T07:00:00;5.30;;;4.90;;
15067;SDS011;7633;60.024;18.770;2023-07-31T07:02:27;5.20;;;4.80;;
15067;SDS011;7633;60.024;18.770;2023-07-31T07:04:52;5.53;;;4.97;;
15067;SDS011;7633;60.024;18.770;2023-07-31T07:07:18;5.30;;;4.85;;
15067;SDS011;7633;60.024;18.770;2023-07-31T07:09:43;5.18;;;4.78;;
15067;SDS011;7633;60.024;18.770;2023-07-31T07:12:09;5.00;;;4.60;;
15067;SDS011;7633;60.024;18.770;2023-07-31T07:14:34;4.10;;;3.80;;
15067;SDS011;7633;60.024;18.770;2023-07-31T07:17:00;4.68;;;4.28;;
15067;SDS011;7633;60.024;18.770;2023-07-31T07:19:25;4.45;;;4.05;;
15067;SDS011;7633;60.024;18.770;2023-07-31T07:21:51;4.65;;;4.22;;
15067;SDS011;7633;60.024;18.770;2023-07-31T07:24:16;4.35;;;3.95;;
15067;SDS011;7633;60.024;18.770;2023-07-31T07:26:41;5.18;;;4.60;;
15067;SDS011;7633;60.024;18.770;2023-07-31T07:29:07;5.28;;;4.88;;
15067;SDS011;7633;60.024;18.770;2023-07-31T07:31:40;4.93;;;4.32;;
15067;SDS011;7633;60.024;18.770;2023-07-31T07:34:05;5.13;;;4.68;;
15067;SDS011;7633;60.024;18.770;2023-07-31T07:36:31;4.60;;;4.20;;
15067;SDS011;7633;60.024;18.770;2023-07-31T07:38:58;4.95;;;4.55;;
15067;SDS011;7633;60.024;18.770;2023-07-31T07:41:23;7.72;;;4.53;;
15067;SDS011;7633;60.024;18.770;2023-07-31T07:43:49;7.40;;;4.38;;
15067;SDS011;7633;60.024;18.770;2023-07-31T07:46:15;5.05;;;4.55;;
15067;SDS011;7633;60.024;18.770;2023-07-31T07:48:41;4.38;;;4.03;;
15067;SDS011;7633;60.024;18.770;2023-07-31T07:51:06;5.20;;;4.80;;
15067;SDS011;7633;60.024;18.770;2023-07-31T07:53:31;4.50;;;3.88;;
15067;SDS011;7633;60.024;18.770;2023-07-31T07:55:57;4.70;;;4.05;;
15067;SDS011;7633;60.024;18.770;2023-07-31T07:58:22;4.00;;;3.60;;
15067;SDS011;7633;60.024;18.770;2023-07-31T08:00:48;6.88;;;3.45;;
15067;SDS011;7633;60.024;18.770;2023-07-31T08:03:14;4.60;;;3.63;;
15067;SDS011;7633;60.024;18.770;2023-07-31T08:05:39;4.50;;;4.15;;
15067;SDS011;7633;60.024;18.770;2023-07-31T08:08:05;5.00;;;4.13;;
15067;SDS011;7633;60.024;18.770;2023-07-31T08:10:31;3.50;;;3.20;;
15067;SDS011;7633;60.024;18.770;2023-07-31T08:12:56;3.30;;;3.00;;
15067;SDS011;7633;60.024;18.770;2023-07-31T08:15:21;2.60;;;2.40;;
15067;SDS011;7633;60.024;18.770;2023-07-31T08:17:49;3.15;;;2.85;;
15067;SDS011;7633;60.024;18.770;2023-07-31T08:20:16;2.90;;;2.70;;
15067;SDS011;7633;60.024;18.770;2023-07-31T08:22:41;3.08;;;2.78;;
15067;SDS011;7633;60.024;18.770;2023-07-31T08:25:07;2.67;;;2.47;;
15067;SDS011;7633;60.024;18.770;2023-07-31T08:27:32;2.65;;;2.22;;
15067;SDS011;7633;60.024;18.770;2023-07-31T08:29:59;3.40;;;3.00;;
15067;SDS011;7633;60.024;18.770;2023-07-31T08:32:25;3.38;;;2.80;;
15067;SDS011;7633;60.024;18.770;2023-07-31T08:34:51;3.35;;;3.03;;
15067;SDS011;7633;60.024;18.770;2023-07-31T08:37:17;3.95;;;3.45;;
15067;SDS011;7633;60.024;18.770;2023-07-31T08:39:43;4.10;;;3.15;;
15067;SDS011;7633;60.024;18.770;2023-07-31T08:42:08;6.38;;;2.90;;
15067;SDS011;7633;60.024;18.770;2023-07-31T08:44:34;5.03;;;3.25;;
15067;SDS011;7633;60.024;18.770;2023-07-31T08:47:00;5.00;;;3.08;;
15067;SDS011;7633;60.024;18.770;2023-07-31T08:49:26;4.35;;;3.10;;
15067;SDS011;7633;60.024;18.770;2023-07-31T08:51:54;3.47;;;2.72;;
15067;SDS011;7633;60.024;18.770;2023-07-31T08:54:23;3.65;;;3.13;;
15067;SDS011;7633;60.024;18.770;2023-07-31T08:56:49;4.28;;;3.05;;
15067;SDS011;7633;60.024;18.770;2023-07-31T08:59:15;3.42;;;3.13;;
15067;SDS011;7633;60.024;18.770;2023-07-31T09:01:43;4.53;;;3.47;;
15067;SDS011;7633;60.024;18.770;2023-07-31T09:04:10;7.13;;;3.40;;
15067;SDS011;7633;60.024;18.770;2023-07-31T09:06:38;4.22;;;3.60;;
15067;SDS011;7633;60.024;18.770;2023-07-31T09:09:04;4.47;;;3.88;;
15067;SDS011;7633;60.024;18.770;2023-07-31T09:11:30;5.50;;;4.00;;
15067;SDS011;7633;60.024;18.770;2023-07-31T09:13:57;3.67;;;3.38;;
15067;SDS011;7633;60.024;18.770;2023-07-31T09:16:29;3.78;;;3.47;;
15067;SDS011;7633;60.024;18.770;2023-07-31T09:18:57;5.03;;;3.70;;
15067;SDS011;7633;60.024;18.770;2023-07-31T09:21:24;5.40;;;4.30;;
15067;SDS011;7633;60.024;18.770;2023-07-31T09:23:50;3.85;;;3.47;;
15067;SDS011;7633;60.024;18.770;2023-07-31T09:26:29;5.47;;;4.10;;
15067;SDS011;7633;60.024;18.770;2023-07-31T09:28:55;5.05;;;3.60;;
15067;SDS011;7633;60.024;18.770;2023-07-31T09:31:33;3.65;;;3.35;;
15067;SDS011;7633;60.024;18.770;2023-07-31T09:34:03;6.53;;;3.40;;
15067;SDS011;7633;60.024;18.770;2023-07-31T09:36:30;6.65;;;3.70;;
15067;SDS011;7633;60.024;18.770;2023-07-31T09:39:02;4.03;;;3.03;;
15067;SDS011;7633;60.024;18.770;2023-07-31T09:41:28;4.90;;;4.00;;
15067;SDS011;7633;60.024;18.770;2023-07-31T09:43:55;5.32;;;3.42;;
15067;SDS011;7633;60.024;18.770;2023-07-31T09:46:21;4.15;;;3.83;;
15067;SDS011;7633;60.024;18.770;2023-07-31T09:48:47;4.47;;;2.20;;
15067;SDS011;7633;60.024;18.770;2023-07-31T09:51:12;0.95;;;0.95;;
15067;SDS011;7633;60.024;18.770;2023-07-31T09:53:49;1.33;;;1.00;;
15067;SDS011;7633;60.024;18.770;2023-07-31T09:56:17;1.10;;;1.00;;
15067;SDS011;7633;60.024;18.770;2023-07-31T09:58:46;0.70;;;0.50;;
15067;SDS011;7633;60.024;18.770;2023-07-31T10:01:12;2.05;;;1.10;;
15067;SDS011;7633;60.024;18.770;2023-07-31T10:03:39;2.75;;;1.13;;
15067;SDS011;7633;60.024;18.770;2023-07-31T10:06:05;3.45;;;1.35;;
15067;SDS011;7633;60.024;18.770;2023-07-31T10:08:32;0.93;;;0.90;;
15067;SDS011;7633;60.024;18.770;2023-07-31T10:11:03;2.83;;;1.00;;
15067;SDS011;7633;60.024;18.770;2023-07-31T10:13:29;3.25;;;1.15;;
15067;SDS011;7633;60.024;18.770;2023-07-31T10:15:58;1.73;;;0.93;;
15067;SDS011;7633;60.024;18.770;2023-07-31T10:18:24;1.00;;;0.77;;
15067;SDS011;7633;60.024;18.770;2023-07-31T10:20:54;2.38;;;1.15;;
15067;SDS011;7633;60.024;18.770;2023-07-31T10:23:20;1.90;;;0.77;;
15067;SDS011;7633;60.024;18.770;2023-07-31T10:25:45;1.25;;;0.90;;
15067;SDS011;7633;60.024;18.770;2023-07-31T10:28:12;4.13;;;1.27;;
15067;SDS011;7633;60.024;18.770;2023-07-31T10:30:38;2.47;;;1.05;;
15067;SDS011;7633;60.024;18.770;2023-07-31T10:33:04;1.65;;;1.00;;
15067;SDS011;7633;60.024;18.770;2023-07-31T10:35:30;1.98;;;1.17;;
15067;SDS011;7633;60.024;18.770;2023-07-31T10:37:55;2.47;;;1.00;;
15067;SDS011;7633;60.024;18.770;2023-07-31T10:40:25;1.23;;;1.10;;
15067;SDS011;7633;60.024;18.770;2023-07-31T10:45:35;2.55;;;1.00;;
15067;SDS011;7633;60.024;18.770;2023-07-31T10:48:03;3.95;;;1.00;;
15067;SDS011;7633;60.024;18.770;2023-07-31T10:50:29;2.42;;;0.93;;
15067;SDS011;7633;60.024;18.770;2023-07-31T10:52:55;0.93;;;0.73;;
15067;SDS011;7633;60.024;18.770;2023-07-31T10:57:49;2.50;;;0.90;;
15067;SDS011;7633;60.024;18.770;2023-07-31T11:00:22;1.63;;;1.27;;
15067;SDS011;7633;60.024;18.770;2023-07-31T11:05:40;2.55;;;0.80;;
15067;SDS011;7633;60.024;18.770;2023-07-31T11:08:18;3.00;;;0.90;;
15067;SDS011;7633;60.024;18.770;2023-07-31T11:10:45;1.48;;;0.90;;
15067;SDS011;7633;60.024;18.770;2023-07-31T11:13:10;1.95;;;1.00;;
15067;SDS011;7633;60.024;18.770;2023-07-31T11:15:36;2.42;;;1.00;;
15067;SDS011;7633;60.024;18.770;2023-07-31T11:18:01;1.27;;;0.85;;
15067;SDS011;7633;60.024;18.770;2023-07-31T11:20:31;0.70;;;0.70;;
15067;SDS011;7633;60.024;18.770;2023-07-31T11:23:03;2.05;;;1.10;;
15067;SDS011;7633;60.024;18.770;2023-07-31T11:25:30;2.53;;;1.10;;
15067;SDS011;7633;60.024;18.770;2023-07-31T11:27:56;1.98;;;0.70;;
15067;SDS011;7633;60.024;18.770;2023-07-31T11:30:22;1.58;;;0.80;;
15067;SDS011;7633;60.024;18.770;2023-07-31T11:32:47;1.98;;;0.85;;
15067;SDS011;7633;60.024;18.770;2023-07-31T11:35:13;1.08;;;0.77;;
15067;SDS011;7633;60.024;18.770;2023-07-31T11:37:39;2.30;;;0.80;;
15067;SDS011;7633;60.024;18.770;2023-07-31T11:40:05;5.78;;;1.10;;
15067;SDS011;7633;60.024;18.770;2023-07-31T11:42:30;1.58;;;0.80;;
15067;SDS011;7633;60.024;18.770;2023-07-31T11:44:56;1.02;;;0.88;;
15067;SDS011;7633;60.024;18.770;2023-07-31T11:47:21;0.80;;;0.80;;
15067;SDS011;7633;60.024;18.770;2023-07-31T11:49:46;2.08;;;1.10;;
15067;SDS011;7633;60.024;18.770;2023-07-31T11:52:13;0.95;;;0.90;;
15067;SDS011;7633;60.024;18.770;2023-07-31T11:54:39;2.58;;;1.05;;
15067;SDS011;7633;60.024;18.770;2023-07-31T11:57:05;3.55;;;1.88;;
15067;SDS011;7633;60.024;18.770;2023-07-31T11:59:30;1.20;;;0.77;;
15067;SDS011;7633;60.024;18.770;2023-07-31T12:01:56;3.72;;;1.35;;
15067;SDS011;7633;60.024;18.770;2023-07-31T12:04:21;2.30;;;1.00;;
15067;SDS011;7633;60.024;18.770;2023-07-31T12:06:47;1.10;;;1.05;;
15067;SDS011;7633;60.024;18.770;2023-07-31T12:09:13;1.02;;;0.80;;
15067;SDS011;7633;60.024;18.770;2023-07-31T12:11:46;2.03;;;1.10;;
15067;SDS011;7633;60.024;18.770;2023-07-31T12:14:24;2.00;;;1.17;;
15067;SDS011;7633;60.024;18.770;2023-07-31T12:17:00;1.42;;;1.02;;
15067;SDS011;7633;60.024;18.770;2023-07-31T12:24:35;2.38;;;1.20;;
15067;SDS011;7633;60.024;18.770;2023-07-31T12:27:08;2.17;;;1.33;;
15067;SDS011;7633;60.024;18.770;2023-07-31T12:37:18;2.15;;;1.20;;
15067;SDS011;7633;60.024;18.770;2023-07-31T12:39:43;2.03;;;1.40;;
15067;SDS011;7633;60.024;18.770;2023-07-31T12:45:22;2.58;;;1.15;;
15067;SDS011;7633;60.024;18.770;2023-07-31T12:47:48;1.85;;;1.13;;
15067;SDS011;7633;60.024;18.770;2023-07-31T12:50:14;2.50;;;1.10;;
15067;SDS011;7633;60.024;18.770;2023-07-31T12:52:39;2.20;;;1.60;;
15067;SDS011;7633;60.024;18.770;2023-07-31T12:55:04;2.45;;;1.23;;
15067;SDS011;7633;60.024;18.770;2023-07-31T13:02:40;2.13;;;1.20;;
15067;SDS011;7633;60.024;18.770;2023-07-31T13:05:05;1.73;;;1.20;;
15067;SDS011;7633;60.024;18.770;2023-07-31T13:12:39;1.55;;;1.15;;
15067;SDS011;7633;60.024;18.770;2023-07-31T13:15:05;1.58;;;1.30;;
15067;SDS011;7633;60.024;18.770;2023-07-31T13:22:41;1.58;;;1.30;;
15067;SDS011;7633;60.024;18.770;2023-07-31T13:28:29;2.53;;;1.63;;
15067;SDS011;7633;60.024;18.770;2023-07-31T13:30:55;2.13;;;1.30;;
15067;SDS011;7633;60.024;18.770;2023-07-31T13:33:20;2.05;;;1.27;;
15067;SDS011;7633;60.024;18.770;2023-07-31T13:38:45;3.40;;;1.60;;
15067;SDS011;7633;60.024;18.770;2023-07-31T13:41:11;3.55;;;1.60;;
15067;SDS011;7633;60.024;18.770;2023-07-31T13:43:36;2.20;;;1.60;;
15067;SDS011;7633;60.024;18.770;2023-07-31T13:46:01;2.03;;;1.50;;
15067;SDS011;7633;60.024;18.770;2023-07-31T13:48:31;3.50;;;1.40;;
15067;SDS011;7633;60.024;18.770;2023-07-31T13:50:57;2.88;;;1.65;;
15067;SDS011;7633;60.024;18.770;2023-07-31T13:53:22;3.80;;;1.70;;
15067;SDS011;7633;60.024;18.770;2023-07-31T13:55:47;2.47;;;1.48;;
15067;SDS011;7633;60.024;18.770;2023-07-31T13:58:14;2.90;;;1.30;;
15067;SDS011;7633;60.024;18.770;2023-07-31T14:00:39;2.88;;;1.40;;
15067;SDS011;7633;60.024;18.770;2023-07-31T14:03:04;2.92;;;1.48;;
15067;SDS011;7633;60.024;18.770;2023-07-31T14:05:30;2.03;;;1.42;;
15067;SDS011;7633;60.024;18.770;2023-07-31T14:07:55;1.85;;;1.40;;
15067;SDS011;7633;60.024;18.770;2023-07-31T14:10:20;3.10;;;1.48;;
15067;SDS011;7633;60.024;18.770;2023-07-31T14:12:46;2.55;;;1.60;;
15067;SDS011;7633;60.024;18.770;2023-07-31T14:15:11;1.80;;;1.33;;
15067;SDS011;7633;60.024;18.770;2023-07-31T14:17:36;2.35;;;1.48;;
15067;SDS011;7633;60.024;18.770;2023-07-31T14:20:02;3.13;;;1.52;;
15067;SDS011;7633;60.024;18.770;2023-07-31T14:22:30;1.70;;;1.60;;
15067;SDS011;7633;60.024;18.770;2023-07-31T14:24:56;2.83;;;1.42;;
15067;SDS011;7633;60.024;18.770;2023-07-31T14:27:22;2.80;;;1.60;;
15067;SDS011;7633;60.024;18.770;2023-07-31T14:29:47;1.40;;;1.30;;
15067;SDS011;7633;60.024;18.770;2023-07-31T14:32:12;4.70;;;1.75;;
15067;SDS011;7633;60.024;18.770;2023-07-31T14:34:38;3.50;;;1.60;;
15067;SDS011;7633;60.024;18.770;2023-07-31T14:37:03;2.55;;;1.60;;
15067;SDS011;7633;60.024;18.770;2023-07-31T14:39:28;1.45;;;1.35;;
15067;SDS011;7633;60.024;18.770;2023-07-31T14:41:54;1.63;;;1.30;;
15067;SDS011;7633;60.024;18.770;2023-07-31T14:44:19;1.77;;;1.40;;
15067;SDS011;7633;60.024;18.770;2023-07-31T14:46:44;1.75;;;1.58;;
15067;SDS011;7633;60.024;18.770;2023-07-31T14:49:10;1.50;;;1.40;;
15067;SDS011;7633;60.024;18.770;2023-07-31T14:51:35;2.72;;;1.40;;
15067;SDS011;7633;60.024;18.770;2023-07-31T14:54:00;2.10;;;1.52;;
15067;SDS011;7633;60.024;18.770;2023-07-31T14:56:25;1.92;;;1.50;;
15067;SDS011;7633;60.024;18.770;2023-07-31T14:58:53;2.90;;;1.80;;
15067;SDS011;7633;60.024;18.770;2023-07-31T15:01:18;3.25;;;1.70;;
15067;SDS011;7633;60.024;18.770;2023-07-31T15:03:43;2.13;;;1.70;;
15067;SDS011;7633;60.024;18.770;2023-07-31T15:06:08;2.03;;;1.70;;
15067;SDS011;7633;60.024;18.770;2023-07-31T15:08:34;3.70;;;1.60;;
15067;SDS011;7633;60.024;18.770;2023-07-31T15:11:01;3.45;;;1.90;;
15067;SDS011;7633;60.024;18.770;2023-07-31T15:13:26;2.25;;;1.90;;
15067;SDS011;7633;60.024;18.770;2023-07-31T15:15:51;4.00;;;1.85;;
15067;SDS011;7633;60.024;18.770;2023-07-31T15:18:17;5.60;;;2.15;;
15067;SDS011;7633;60.024;18.770;2023-07-31T15:20:42;5.85;;;2.10;;
15067;SDS011;7633;60.024;18.770;2023-07-31T15:23:07;3.28;;;1.73;;
15067;SDS011;7633;60.024;18.770;2023-07-31T15:25:33;1.90;;;1.80;;
15067;SDS011;7633;60.024;18.770;2023-07-31T15:27:58;3.50;;;1.88;;
15067;SDS011;7633;60.024;18.770;2023-07-31T15:30:23;2.92;;;2.20;;
15067;SDS011;7633;60.024;18.770;2023-07-31T15:32:49;3.30;;;1.95;;
15067;SDS011;7633;60.024;18.770;2023-07-31T15:35:15;2.40;;;2.10;;
15067;SDS011;7633;60.024;18.770;2023-07-31T15:37:40;3.03;;;2.10;;